Main page
METAR-TAF:

METAR-TAF

Airports :

Bahrain International Airport

Bahrain, Bahrain

latitude: 26-16N, longitude: 050-39E, elevation: 2 m

Current weather observation

The report was made 33 minutes ago, at 11:00 UTC
Wind 16 kt from the Northwest
Temperature 38°C
Humidity 38%
Pressure 998 hPa
Visibility 10 km or more
no clouds below 1500 m and no cumulonimbus

METAR: OBBI 151100Z 32016KT CAVOK 38/21 Q0998 NOSIG

Time: 14:33 (11:33 UTC)

Forecast

The report was made 6 hours and 33 minutes ago, at 05:00 UTC
Forecast valid from 15 at 06 UTC to 16 at 12 UTC
Wind 13 kt from the Northwest with gusts up to 23 kt
Visibility 10 km or more
no clouds below 1500 m and no cumulonimbus
Becoming
from 15 at 13 UTC to 15 at 15 UTC
Wind 8 kt from the Northwest

TAF: OBBI 150500Z 1506/1612 32013G23KT CAVOK BECMG 1513/1515 32008KT

Weather observations and forecasts of more than 4000 airports (METAR and TAF reports).

The available stations are represented by yellow and red dots on the map.

Hover mouse over dot to see the name of the station.

Then click to see weather observations and forecasts.

To change the map : click on the green buttons with a black cross to zoom in, on the green button with a dash to zoom out, or on the green arrows for adjacent maps.


METAR-TAF: